Skip Navigation LinksHome page > Weather > Current weather Skip Navigation Links

Current Weather

Chicago O'Hare Intl, Chicago

For information only: do not use for flight planning or navigation.
Latest weather
Observation time Wednesday, March 29, 2017 1:59 AM CDT
Local time Wednesday, March 29, 2017 2:10 AM CDT
Flight conditions Low Instrument Meteorological Conditions
Winds
Wind direction Northeast (50°)
Wind speed 7 mph
Visibility 0.5 mi.
Present weather fog
Sky condition
Ceiling 300 ft. indefinite
Cloud layer vertical visibility 300 ft.
Temperature 36°F
Dewpoint 34°F
Altimeter 30.22 in.Hg
Derived measurements
Relative humidity 93%
Wind chill 30°F
Density altitude -1160 ft.
Remarks
Special weather observation.
METAR SPUS31 KWBC 290703 SPECI KORD 290659Z 05006KT 1/2SM R10L/4000VP6000FT FG VV003 02/01 A3022

Settings

Location code

InnerDrive.Weather 4.0.6144.1 Release CLR 4.0.30319.34209
Copyright ©2015 Inner Drive Technology. All rights reserved. Portions Copyright ©1986-2015 David Braverman.

Find weather

Site navigation


Skip Navigation Links

Place info

Page info

PayPal - The safer, easier way to pay online!

Return home.

Copyright ©2017 Inner Drive Technology. Purveyors of fine, hand-crafted computer software. Page printed 2017-03-29T07:10:41 UTC.